sensor_id;sensor_type;location;lat;lon;timestamp;P1;durP1;ratioP1;P2;durP2;ratioP2
35847;SDS011;22332;51.954;20.118;2024-01-16T00:02:39;5.20;;;1.90;;
35847;SDS011;22332;51.954;20.118;2024-01-16T00:05:45;5.30;;;3.50;;
35847;SDS011;22332;51.954;20.118;2024-01-16T00:08:51;3.40;;;2.00;;
35847;SDS011;22332;51.954;20.118;2024-01-16T00:11:57;2.40;;;1.10;;
35847;SDS011;22332;51.954;20.118;2024-01-16T00:15:03;3.10;;;1.60;;
35847;SDS011;22332;51.954;20.118;2024-01-16T00:18:10;1.80;;;1.00;;
35847;SDS011;22332;51.954;20.118;2024-01-16T00:21:15;2.50;;;1.20;;
35847;SDS011;22332;51.954;20.118;2024-01-16T00:24:21;2.00;;;1.10;;
35847;SDS011;22332;51.954;20.118;2024-01-16T00:27:27;2.50;;;1.10;;
35847;SDS011;22332;51.954;20.118;2024-01-16T00:30:32;3.00;;;2.00;;
35847;SDS011;22332;51.954;20.118;2024-01-16T00:33:38;3.30;;;2.00;;
35847;SDS011;22332;51.954;20.118;2024-01-16T00:36:44;4.70;;;2.60;;
35847;SDS011;22332;51.954;20.118;2024-01-16T00:39:50;3.50;;;1.90;;
35847;SDS011;22332;51.954;20.118;2024-01-16T00:42:55;5.00;;;1.50;;
35847;SDS011;22332;51.954;20.118;2024-01-16T00:46:01;4.20;;;2.20;;
35847;SDS011;22332;51.954;20.118;2024-01-16T00:49:07;2.20;;;1.40;;
35847;SDS011;22332;51.954;20.118;2024-01-16T00:52:12;4.60;;;2.00;;
35847;SDS011;22332;51.954;20.118;2024-01-16T00:55:18;3.00;;;1.20;;
35847;SDS011;22332;51.954;20.118;2024-01-16T00:58:24;3.00;;;1.90;;
35847;SDS011;22332;51.954;20.118;2024-01-16T01:01:30;2.50;;;1.40;;
35847;SDS011;22332;51.954;20.118;2024-01-16T01:04:35;2.10;;;1.40;;
35847;SDS011;22332;51.954;20.118;2024-01-16T01:07:41;6.20;;;3.50;;
35847;SDS011;22332;51.954;20.118;2024-01-16T01:10:47;4.80;;;3.30;;
35847;SDS011;22332;51.954;20.118;2024-01-16T01:13:52;2.90;;;2.00;;
35847;SDS011;22332;51.954;20.118;2024-01-16T01:16:58;3.10;;;1.60;;
35847;SDS011;22332;51.954;20.118;2024-01-16T01:20:06;1.60;;;1.10;;
35847;SDS011;22332;51.954;20.118;2024-01-16T01:23:13;2.50;;;2.00;;
35847;SDS011;22332;51.954;20.118;2024-01-16T01:26:19;2.90;;;1.90;;
35847;SDS011;22332;51.954;20.118;2024-01-16T01:29:25;3.00;;;1.60;;
35847;SDS011;22332;51.954;20.118;2024-01-16T01:32:31;3.60;;;2.40;;
35847;SDS011;22332;51.954;20.118;2024-01-16T01:35:36;3.20;;;1.90;;
35847;SDS011;22332;51.954;20.118;2024-01-16T01:38:42;3.20;;;1.90;;
35847;SDS011;22332;51.954;20.118;2024-01-16T01:41:48;2.50;;;1.50;;
35847;SDS011;22332;51.954;20.118;2024-01-16T01:44:54;4.10;;;1.60;;
35847;SDS011;22332;51.954;20.118;2024-01-16T01:48:00;2.10;;;1.30;;
35847;SDS011;22332;51.954;20.118;2024-01-16T01:51:09;3.00;;;1.60;;
35847;SDS011;22332;51.954;20.118;2024-01-16T01:54:16;2.30;;;1.30;;
35847;SDS011;22332;51.954;20.118;2024-01-16T01:57:23;5.40;;;2.50;;
35847;SDS011;22332;51.954;20.118;2024-01-16T02:00:29;5.90;;;2.40;;
35847;SDS011;22332;51.954;20.118;2024-01-16T02:03:39;12.70;;;4.20;;
35847;SDS011;22332;51.954;20.118;2024-01-16T02:06:47;139.30;;;47.50;;
35847;SDS011;22332;51.954;20.118;2024-01-16T02:09:53;148.90;;;47.60;;
35847;SDS011;22332;51.954;20.118;2024-01-16T02:12:59;44.00;;;13.70;;
35847;SDS011;22332;51.954;20.118;2024-01-16T02:16:05;89.40;;;29.20;;
35847;SDS011;22332;51.954;20.118;2024-01-16T02:19:20;40.40;;;14.00;;
35847;SDS011;22332;51.954;20.118;2024-01-16T02:22:28;48.80;;;15.60;;
35847;SDS011;22332;51.954;20.118;2024-01-16T02:25:36;23.50;;;8.70;;
35847;SDS011;22332;51.954;20.118;2024-01-16T02:28:41;46.70;;;16.80;;
35847;SDS011;22332;51.954;20.118;2024-01-16T02:31:47;28.90;;;11.50;;
35847;SDS011;22332;51.954;20.118;2024-01-16T02:34:53;12.60;;;4.90;;
35847;SDS011;22332;51.954;20.118;2024-01-16T02:37:58;14.10;;;5.60;;
35847;SDS011;22332;51.954;20.118;2024-01-16T02:41:04;25.90;;;10.70;;
35847;SDS011;22332;51.954;20.118;2024-01-16T02:44:11;23.90;;;10.50;;
35847;SDS011;22332;51.954;20.118;2024-01-16T02:47:16;26.10;;;13.40;;
35847;SDS011;22332;51.954;20.118;2024-01-16T02:50:23;10.20;;;4.50;;
35847;SDS011;22332;51.954;20.118;2024-01-16T02:53:28;4.60;;;2.70;;
35847;SDS011;22332;51.954;20.118;2024-01-16T02:56:34;9.30;;;4.30;;
35847;SDS011;22332;51.954;20.118;2024-01-16T02:59:42;12.70;;;6.70;;
35847;SDS011;22332;51.954;20.118;2024-01-16T03:02:48;5.90;;;3.10;;
35847;SDS011;22332;51.954;20.118;2024-01-16T03:05:54;9.40;;;4.30;;
35847;SDS011;22332;51.954;20.118;2024-01-16T03:09:00;20.50;;;8.80;;
35847;SDS011;22332;51.954;20.118;2024-01-16T03:12:06;13.70;;;6.70;;
35847;SDS011;22332;51.954;20.118;2024-01-16T03:15:12;11.40;;;6.00;;
35847;SDS011;22332;51.954;20.118;2024-01-16T03:18:17;21.90;;;12.00;;
35847;SDS011;22332;51.954;20.118;2024-01-16T03:21:23;5.50;;;2.70;;
35847;SDS011;22332;51.954;20.118;2024-01-16T03:24:29;5.70;;;3.40;;
35847;SDS011;22332;51.954;20.118;2024-01-16T03:27:34;2.60;;;1.70;;
35847;SDS011;22332;51.954;20.118;2024-01-16T03:30:40;5.30;;;1.90;;
35847;SDS011;22332;51.954;20.118;2024-01-16T03:33:46;4.10;;;1.70;;
35847;SDS011;22332;51.954;20.118;2024-01-16T03:36:52;3.70;;;1.90;;
35847;SDS011;22332;51.954;20.118;2024-01-16T03:39:57;3.00;;;1.60;;
35847;SDS011;22332;51.954;20.118;2024-01-16T03:43:03;3.30;;;1.60;;
35847;SDS011;22332;51.954;20.118;2024-01-16T03:46:11;12.60;;;6.40;;
35847;SDS011;22332;51.954;20.118;2024-01-16T03:49:17;6.40;;;3.50;;
35847;SDS011;22332;51.954;20.118;2024-01-16T03:52:23;21.50;;;12.20;;
35847;SDS011;22332;51.954;20.118;2024-01-16T03:55:28;10.10;;;4.90;;
35847;SDS011;22332;51.954;20.118;2024-01-16T03:58:34;6.80;;;3.40;;
35847;SDS011;22332;51.954;20.118;2024-01-16T04:01:40;6.00;;;3.50;;
35847;SDS011;22332;51.954;20.118;2024-01-16T04:04:47;5.70;;;3.10;;
35847;SDS011;22332;51.954;20.118;2024-01-16T04:07:52;6.50;;;3.00;;
35847;SDS011;22332;51.954;20.118;2024-01-16T04:10:58;4.90;;;2.90;;
35847;SDS011;22332;51.954;20.118;2024-01-16T04:14:04;5.60;;;3.10;;
35847;SDS011;22332;51.954;20.118;2024-01-16T04:17:10;3.20;;;1.60;;
35847;SDS011;22332;51.954;20.118;2024-01-16T04:20:16;2.80;;;1.60;;
35847;SDS011;22332;51.954;20.118;2024-01-16T04:23:22;205.60;;;58.00;;
35847;SDS011;22332;51.954;20.118;2024-01-16T04:26:27;44.20;;;23.00;;
35847;SDS011;22332;51.954;20.118;2024-01-16T04:29:33;25.80;;;13.00;;
35847;SDS011;22332;51.954;20.118;2024-01-16T04:32:41;26.70;;;13.10;;
35847;SDS011;22332;51.954;20.118;2024-01-16T04:35:47;30.60;;;13.40;;
35847;SDS011;22332;51.954;20.118;2024-01-16T04:38:53;23.70;;;12.40;;
35847;SDS011;22332;51.954;20.118;2024-01-16T04:41:59;16.90;;;8.40;;
35847;SDS011;22332;51.954;20.118;2024-01-16T04:45:05;14.50;;;8.00;;
35847;SDS011;22332;51.954;20.118;2024-01-16T04:48:12;109.60;;;35.40;;
35847;SDS011;22332;51.954;20.118;2024-01-16T04:51:17;11.90;;;5.00;;
35847;SDS011;22332;51.954;20.118;2024-01-16T04:54:23;56.00;;;21.70;;
35847;SDS011;22332;51.954;20.118;2024-01-16T04:57:29;30.20;;;11.00;;
35847;SDS011;22332;51.954;20.118;2024-01-16T05:00:35;23.90;;;10.10;;
35847;SDS011;22332;51.954;20.118;2024-01-16T05:03:41;76.00;;;34.40;;
35847;SDS011;22332;51.954;20.118;2024-01-16T05:06:50;84.10;;;43.50;;
35847;SDS011;22332;51.954;20.118;2024-01-16T05:09:56;13.10;;;7.20;;
35847;SDS011;22332;51.954;20.118;2024-01-16T05:13:02;6.80;;;3.30;;
35847;SDS011;22332;51.954;20.118;2024-01-16T05:16:07;13.30;;;5.60;;
35847;SDS011;22332;51.954;20.118;2024-01-16T05:19:13;8.40;;;3.10;;
35847;SDS011;22332;51.954;20.118;2024-01-16T05:22:19;9.30;;;4.30;;
35847;SDS011;22332;51.954;20.118;2024-01-16T05:25:25;5.40;;;2.50;;
35847;SDS011;22332;51.954;20.118;2024-01-16T05:28:30;4.10;;;2.10;;
35847;SDS011;22332;51.954;20.118;2024-01-16T05:31:40;4.70;;;2.30;;
35847;SDS011;22332;51.954;20.118;2024-01-16T05:34:46;5.10;;;2.70;;
35847;SDS011;22332;51.954;20.118;2024-01-16T05:37:51;4.70;;;2.20;;
35847;SDS011;22332;51.954;20.118;2024-01-16T05:40:58;37.20;;;15.20;;
35847;SDS011;22332;51.954;20.118;2024-01-16T05:44:04;12.20;;;4.90;;
35847;SDS011;22332;51.954;20.118;2024-01-16T05:47:10;6.60;;;2.90;;
35847;SDS011;22332;51.954;20.118;2024-01-16T05:50:15;9.70;;;4.50;;
35847;SDS011;22332;51.954;20.118;2024-01-16T05:53:21;7.30;;;3.30;;
35847;SDS011;22332;51.954;20.118;2024-01-16T05:56:27;16.90;;;6.80;;
35847;SDS011;22332;51.954;20.118;2024-01-16T05:59:32;5.80;;;3.00;;
35847;SDS011;22332;51.954;20.118;2024-01-16T06:02:38;26.90;;;14.80;;
35847;SDS011;22332;51.954;20.118;2024-01-16T06:05:44;6.20;;;4.00;;
35847;SDS011;22332;51.954;20.118;2024-01-16T06:08:49;9.30;;;5.30;;
35847;SDS011;22332;51.954;20.118;2024-01-16T06:11:55;4.50;;;2.40;;
35847;SDS011;22332;51.954;20.118;2024-01-16T06:15:01;8.00;;;4.10;;
35847;SDS011;22332;51.954;20.118;2024-01-16T06:18:07;8.70;;;4.20;;
35847;SDS011;22332;51.954;20.118;2024-01-16T06:21:13;7.60;;;3.20;;
35847;SDS011;22332;51.954;20.118;2024-01-16T06:24:19;8.00;;;3.90;;
35847;SDS011;22332;51.954;20.118;2024-01-16T06:27:25;4.50;;;2.20;;
35847;SDS011;22332;51.954;20.118;2024-01-16T06:30:30;6.30;;;2.90;;
35847;SDS011;22332;51.954;20.118;2024-01-16T06:33:37;22.30;;;7.80;;
35847;SDS011;22332;51.954;20.118;2024-01-16T06:36:42;16.50;;;6.60;;
35847;SDS011;22332;51.954;20.118;2024-01-16T06:39:48;96.00;;;30.70;;
35847;SDS011;22332;51.954;20.118;2024-01-16T06:42:54;22.30;;;8.00;;
35847;SDS011;22332;51.954;20.118;2024-01-16T06:45:59;53.90;;;19.70;;
35847;SDS011;22332;51.954;20.118;2024-01-16T06:49:05;16.50;;;6.90;;
35847;SDS011;22332;51.954;20.118;2024-01-16T06:52:12;10.70;;;5.40;;
35847;SDS011;22332;51.954;20.118;2024-01-16T06:55:22;16.40;;;7.20;;
35847;SDS011;22332;51.954;20.118;2024-01-16T06:58:28;23.20;;;10.80;;
35847;SDS011;22332;51.954;20.118;2024-01-16T07:01:35;18.10;;;7.70;;
35847;SDS011;22332;51.954;20.118;2024-01-16T07:04:41;14.70;;;6.00;;
35847;SDS011;22332;51.954;20.118;2024-01-16T07:07:47;21.20;;;10.30;;
35847;SDS011;22332;51.954;20.118;2024-01-16T07:10:53;35.50;;;15.70;;
35847;SDS011;22332;51.954;20.118;2024-01-16T07:13:59;21.40;;;9.90;;
35847;SDS011;22332;51.954;20.118;2024-01-16T07:17:06;18.30;;;9.50;;
35847;SDS011;22332;51.954;20.118;2024-01-16T07:20:12;24.30;;;11.30;;
35847;SDS011;22332;51.954;20.118;2024-01-16T07:23:18;16.70;;;9.50;;
35847;SDS011;22332;51.954;20.118;2024-01-16T07:26:23;267.30;;;76.20;;
35847;SDS011;22332;51.954;20.118;2024-01-16T07:29:29;33.20;;;10.80;;
35847;SDS011;22332;51.954;20.118;2024-01-16T07:32:35;80.90;;;19.30;;
35847;SDS011;22332;51.954;20.118;2024-01-16T07:35:41;14.30;;;5.60;;
35847;SDS011;22332;51.954;20.118;2024-01-16T07:38:50;49.40;;;12.20;;
35847;SDS011;22332;51.954;20.118;2024-01-16T07:41:56;16.20;;;4.10;;
35847;SDS011;22332;51.954;20.118;2024-01-16T07:45:02;34.70;;;8.50;;
35847;SDS011;22332;51.954;20.118;2024-01-16T07:48:09;136.70;;;28.50;;
35847;SDS011;22332;51.954;20.118;2024-01-16T07:51:15;40.70;;;11.20;;
35847;SDS011;22332;51.954;20.118;2024-01-16T07:54:21;26.50;;;7.60;;
35847;SDS011;22332;51.954;20.118;2024-01-16T07:57:26;10.50;;;3.60;;
35847;SDS011;22332;51.954;20.118;2024-01-16T08:00:32;12.90;;;4.40;;
35847;SDS011;22332;51.954;20.118;2024-01-16T08:03:38;12.90;;;4.80;;
35847;SDS011;22332;51.954;20.118;2024-01-16T08:06:44;234.30;;;82.10;;
35847;SDS011;22332;51.954;20.118;2024-01-16T08:09:50;179.00;;;66.70;;
35847;SDS011;22332;51.954;20.118;2024-01-16T08:12:56;49.50;;;21.10;;
35847;SDS011;22332;51.954;20.118;2024-01-16T08:16:02;21.40;;;9.70;;
35847;SDS011;22332;51.954;20.118;2024-01-16T08:19:08;13.70;;;7.00;;
35847;SDS011;22332;51.954;20.118;2024-01-16T08:22:14;6.50;;;3.40;;
35847;SDS011;22332;51.954;20.118;2024-01-16T08:25:20;14.70;;;6.50;;
35847;SDS011;22332;51.954;20.118;2024-01-16T08:28:25;8.10;;;4.00;;
35847;SDS011;22332;51.954;20.118;2024-01-16T08:31:32;13.40;;;6.50;;
35847;SDS011;22332;51.954;20.118;2024-01-16T08:34:37;15.60;;;6.30;;
35847;SDS011;22332;51.954;20.118;2024-01-16T08:37:43;10.40;;;4.50;;
35847;SDS011;22332;51.954;20.118;2024-01-16T08:40:49;15.60;;;5.70;;
35847;SDS011;22332;51.954;20.118;2024-01-16T08:43:55;18.30;;;7.80;;
35847;SDS011;22332;51.954;20.118;2024-01-16T08:47:01;9.60;;;4.10;;
35847;SDS011;22332;51.954;20.118;2024-01-16T08:50:09;13.80;;;5.60;;
35847;SDS011;22332;51.954;20.118;2024-01-16T08:53:14;12.70;;;5.20;;
35847;SDS011;22332;51.954;20.118;2024-01-16T08:56:20;10.00;;;4.00;;
35847;SDS011;22332;51.954;20.118;2024-01-16T08:59:26;9.60;;;3.60;;
35847;SDS011;22332;51.954;20.118;2024-01-16T09:02:31;10.70;;;4.10;;
35847;SDS011;22332;51.954;20.118;2024-01-16T09:05:38;8.00;;;3.60;;
35847;SDS011;22332;51.954;20.118;2024-01-16T09:08:44;14.90;;;6.90;;
35847;SDS011;22332;51.954;20.118;2024-01-16T09:11:50;9.40;;;3.90;;
35847;SDS011;22332;51.954;20.118;2024-01-16T09:14:55;10.00;;;3.70;;
35847;SDS011;22332;51.954;20.118;2024-01-16T09:18:01;9.70;;;3.40;;
35847;SDS011;22332;51.954;20.118;2024-01-16T09:21:07;6.60;;;3.00;;
35847;SDS011;22332;51.954;20.118;2024-01-16T09:24:13;8.70;;;3.00;;
35847;SDS011;22332;51.954;20.118;2024-01-16T09:27:18;6.30;;;3.00;;
35847;SDS011;22332;51.954;20.118;2024-01-16T09:30:25;7.70;;;2.90;;
35847;SDS011;22332;51.954;20.118;2024-01-16T09:33:31;6.20;;;2.50;;
35847;SDS011;22332;51.954;20.118;2024-01-16T09:36:37;6.40;;;3.00;;
35847;SDS011;22332;51.954;20.118;2024-01-16T09:39:42;9.40;;;2.80;;
35847;SDS011;22332;51.954;20.118;2024-01-16T09:42:48;4.10;;;2.60;;
35847;SDS011;22332;51.954;20.118;2024-01-16T09:45:54;9.90;;;3.90;;
35847;SDS011;22332;51.954;20.118;2024-01-16T09:49:00;4.70;;;2.20;;
35847;SDS011;22332;51.954;20.118;2024-01-16T09:52:06;7.30;;;3.30;;
35847;SDS011;22332;51.954;20.118;2024-01-16T09:55:12;6.80;;;2.50;;
35847;SDS011;22332;51.954;20.118;2024-01-16T09:58:18;7.10;;;4.70;;
35847;SDS011;22332;51.954;20.118;2024-01-16T10:01:25;18.40;;;9.30;;
35847;SDS011;22332;51.954;20.118;2024-01-16T10:04:32;7.90;;;3.10;;
35847;SDS011;22332;51.954;20.118;2024-01-16T10:07:39;5.60;;;2.60;;
35847;SDS011;22332;51.954;20.118;2024-01-16T10:10:47;7.10;;;3.30;;
35847;SDS011;22332;51.954;20.118;2024-01-16T10:13:52;6.00;;;3.30;;
35847;SDS011;22332;51.954;20.118;2024-01-16T10:16:59;15.50;;;8.50;;
35847;SDS011;22332;51.954;20.118;2024-01-16T10:20:09;13.50;;;6.70;;
35847;SDS011;22332;51.954;20.118;2024-01-16T10:23:18;10.80;;;3.70;;
35847;SDS011;22332;51.954;20.118;2024-01-16T10:26:27;10.70;;;4.20;;
35847;SDS011;22332;51.954;20.118;2024-01-16T10:29:33;15.60;;;5.90;;
35847;SDS011;22332;51.954;20.118;2024-01-16T10:32:41;12.00;;;5.60;;
35847;SDS011;22332;51.954;20.118;2024-01-16T10:35:47;5.70;;;2.80;;
35847;SDS011;22332;51.954;20.118;2024-01-16T10:38:53;6.10;;;2.20;;
35847;SDS011;22332;51.954;20.118;2024-01-16T10:42:07;24.90;;;7.50;;
35847;SDS011;22332;51.954;20.118;2024-01-16T10:45:17;11.10;;;4.40;;
35847;SDS011;22332;51.954;20.118;2024-01-16T10:48:25;7.10;;;3.30;;
35847;SDS011;22332;51.954;20.118;2024-01-16T10:51:31;20.60;;;6.50;;
35847;SDS011;22332;51.954;20.118;2024-01-16T10:54:38;10.20;;;3.60;;
35847;SDS011;22332;51.954;20.118;2024-01-16T10:57:48;3.70;;;1.80;;
35847;SDS011;22332;51.954;20.118;2024-01-16T11:00:55;3.90;;;1.70;;
35847;SDS011;22332;51.954;20.118;2024-01-16T11:04:05;20.70;;;7.90;;
35847;SDS011;22332;51.954;20.118;2024-01-16T11:07:12;32.50;;;11.50;;
35847;SDS011;22332;51.954;20.118;2024-01-16T11:10:20;12.40;;;4.70;;
35847;SDS011;22332;51.954;20.118;2024-01-16T11:13:27;5.40;;;2.60;;
35847;SDS011;22332;51.954;20.118;2024-01-16T11:16:34;14.60;;;6.30;;
35847;SDS011;22332;51.954;20.118;2024-01-16T11:19:40;12.60;;;5.80;;
35847;SDS011;22332;51.954;20.118;2024-01-16T11:22:47;10.80;;;4.20;;
35847;SDS011;22332;51.954;20.118;2024-01-16T11:25:54;6.40;;;3.60;;
35847;SDS011;22332;51.954;20.118;2024-01-16T11:29:00;5.50;;;2.30;;
35847;SDS011;22332;51.954;20.118;2024-01-16T11:32:34;4.90;;;1.80;;
35847;SDS011;22332;51.954;20.118;2024-01-16T11:35:40;4.00;;;1.80;;
35847;SDS011;22332;51.954;20.118;2024-01-16T11:38:46;5.20;;;2.20;;
35847;SDS011;22332;51.954;20.118;2024-01-16T11:42:02;7.20;;;3.40;;
35847;SDS011;22332;51.954;20.118;2024-01-16T11:45:16;18.70;;;11.90;;
35847;SDS011;22332;51.954;20.118;2024-01-16T11:49:02;12.60;;;7.00;;
35847;SDS011;22332;51.954;20.118;2024-01-16T11:52:08;5.00;;;2.50;;
35847;SDS011;22332;51.954;20.118;2024-01-16T11:55:26;7.20;;;3.60;;
35847;SDS011;22332;51.954;20.118;2024-01-16T11:58:39;8.50;;;4.40;;
35847;SDS011;22332;51.954;20.118;2024-01-16T12:01:52;8.10;;;3.30;;
35847;SDS011;22332;51.954;20.118;2024-01-16T12:05:01;10.10;;;5.80;;
35847;SDS011;22332;51.954;20.118;2024-01-16T12:08:09;14.10;;;9.60;;
35847;SDS011;22332;51.954;20.118;2024-01-16T12:11:19;19.60;;;12.10;;
35847;SDS011;22332;51.954;20.118;2024-01-16T12:14:25;12.50;;;8.30;;
35847;SDS011;22332;51.954;20.118;2024-01-16T12:17:31;13.70;;;7.90;;
35847;SDS011;22332;51.954;20.118;2024-01-16T12:20:37;22.00;;;12.20;;
35847;SDS011;22332;51.954;20.118;2024-01-16T12:23:43;13.80;;;7.30;;
35847;SDS011;22332;51.954;20.118;2024-01-16T12:26:50;8.70;;;4.30;;
35847;SDS011;22332;51.954;20.118;2024-01-16T12:30:06;13.30;;;8.30;;
35847;SDS011;22332;51.954;20.118;2024-01-16T12:33:13;13.80;;;10.20;;
35847;SDS011;22332;51.954;20.118;2024-01-16T12:36:19;16.10;;;9.50;;
35847;SDS011;22332;51.954;20.118;2024-01-16T12:39:24;10.90;;;5.30;;
35847;SDS011;22332;51.954;20.118;2024-01-16T12:42:31;12.80;;;5.50;;
35847;SDS011;22332;51.954;20.118;2024-01-16T12:45:36;9.10;;;4.20;;
35847;SDS011;22332;51.954;20.118;2024-01-16T12:48:42;11.40;;;4.30;;
35847;SDS011;22332;51.954;20.118;2024-01-16T12:51:49;12.90;;;6.70;;
35847;SDS011;22332;51.954;20.118;2024-01-16T12:54:59;13.80;;;6.30;;
35847;SDS011;22332;51.954;20.118;2024-01-16T12:58:14;17.20;;;9.90;;
35847;SDS011;22332;51.954;20.118;2024-01-16T13:01:25;9.70;;;5.60;;
35847;SDS011;22332;51.954;20.118;2024-01-16T13:04:34;7.90;;;3.90;;
35847;SDS011;22332;51.954;20.118;2024-01-16T13:07:39;10.60;;;5.20;;
35847;SDS011;22332;51.954;20.118;2024-01-16T13:10:45;9.40;;;5.20;;
35847;SDS011;22332;51.954;20.118;2024-01-16T13:14:00;115.70;;;52.70;;
35847;SDS011;22332;51.954;20.118;2024-01-16T13:17:06;43.50;;;17.70;;
35847;SDS011;22332;51.954;20.118;2024-01-16T13:20:13;20.30;;;9.10;;
35847;SDS011;22332;51.954;20.118;2024-01-16T13:23:19;22.70;;;9.90;;
35847;SDS011;22332;51.954;20.118;2024-01-16T13:26:25;62.40;;;28.90;;
35847;SDS011;22332;51.954;20.118;2024-01-16T13:29:32;16.20;;;7.00;;
35847;SDS011;22332;51.954;20.118;2024-01-16T13:32:42;22.00;;;9.20;;
35847;SDS011;22332;51.954;20.118;2024-01-16T13:35:47;35.40;;;14.00;;
35847;SDS011;22332;51.954;20.118;2024-01-16T13:38:53;68.90;;;28.50;;
35847;SDS011;22332;51.954;20.118;2024-01-16T13:41:59;29.10;;;11.80;;
35847;SDS011;22332;51.954;20.118;2024-01-16T13:45:08;31.20;;;12.50;;
35847;SDS011;22332;51.954;20.118;2024-01-16T13:48:16;17.60;;;7.50;;
35847;SDS011;22332;51.954;20.118;2024-01-16T13:51:21;11.40;;;5.30;;
35847;SDS011;22332;51.954;20.118;2024-01-16T13:54:28;30.50;;;13.70;;
35847;SDS011;22332;51.954;20.118;2024-01-16T13:57:33;15.00;;;6.80;;
35847;SDS011;22332;51.954;20.118;2024-01-16T14:00:39;47.00;;;19.00;;
35847;SDS011;22332;51.954;20.118;2024-01-16T14:03:49;13.80;;;5.60;;
35847;SDS011;22332;51.954;20.118;2024-01-16T14:06:57;12.20;;;5.10;;
35847;SDS011;22332;51.954;20.118;2024-01-16T14:10:09;12.50;;;5.80;;
35847;SDS011;22332;51.954;20.118;2024-01-16T14:13:15;9.10;;;5.20;;
35847;SDS011;22332;51.954;20.118;2024-01-16T14:16:20;27.30;;;14.40;;
35847;SDS011;22332;51.954;20.118;2024-01-16T14:19:26;11.60;;;6.80;;
35847;SDS011;22332;51.954;20.118;2024-01-16T14:22:33;17.80;;;8.70;;
35847;SDS011;22332;51.954;20.118;2024-01-16T14:25:40;25.40;;;13.30;;
35847;SDS011;22332;51.954;20.118;2024-01-16T14:28:48;19.00;;;10.10;;
35847;SDS011;22332;51.954;20.118;2024-01-16T14:31:53;22.10;;;12.40;;
35847;SDS011;22332;51.954;20.118;2024-01-16T14:34:59;24.00;;;11.60;;
35847;SDS011;22332;51.954;20.118;2024-01-16T14:38:07;24.10;;;13.60;;
35847;SDS011;22332;51.954;20.118;2024-01-16T14:41:15;20.30;;;10.20;;
35847;SDS011;22332;51.954;20.118;2024-01-16T14:44:21;29.50;;;12.80;;
35847;SDS011;22332;51.954;20.118;2024-01-16T14:47:27;40.00;;;16.30;;
35847;SDS011;22332;51.954;20.118;2024-01-16T14:50:32;18.60;;;7.70;;
35847;SDS011;22332;51.954;20.118;2024-01-16T14:53:38;30.70;;;12.20;;
35847;SDS011;22332;51.954;20.118;2024-01-16T14:56:43;26.90;;;12.70;;
35847;SDS011;22332;51.954;20.118;2024-01-16T14:59:49;37.40;;;13.20;;
35847;SDS011;22332;51.954;20.118;2024-01-16T15:02:55;85.20;;;28.80;;
35847;SDS011;22332;51.954;20.118;2024-01-16T15:06:01;68.70;;;23.80;;
35847;SDS011;22332;51.954;20.118;2024-01-16T15:09:08;21.70;;;10.10;;
35847;SDS011;22332;51.954;20.118;2024-01-16T15:12:15;88.20;;;31.70;;
35847;SDS011;22332;51.954;20.118;2024-01-16T15:15:21;140.40;;;43.20;;
35847;SDS011;22332;51.954;20.118;2024-01-16T15:18:27;198.50;;;69.10;;
35847;SDS011;22332;51.954;20.118;2024-01-16T15:21:32;302.20;;;100.30;;
35847;SDS011;22332;51.954;20.118;2024-01-16T15:24:39;277.80;;;93.00;;
35847;SDS011;22332;51.954;20.118;2024-01-16T15:27:45;196.30;;;67.50;;
35847;SDS011;22332;51.954;20.118;2024-01-16T15:30:56;157.20;;;53.10;;
35847;SDS011;22332;51.954;20.118;2024-01-16T15:34:01;117.40;;;44.60;;
35847;SDS011;22332;51.954;20.118;2024-01-16T15:37:07;78.70;;;28.20;;
35847;SDS011;22332;51.954;20.118;2024-01-16T15:40:12;149.30;;;55.40;;
35847;SDS011;22332;51.954;20.118;2024-01-16T15:43:18;154.50;;;74.20;;
35847;SDS011;22332;51.954;20.118;2024-01-16T15:46:24;190.50;;;70.40;;
35847;SDS011;22332;51.954;20.118;2024-01-16T15:49:30;376.10;;;128.00;;
35847;SDS011;22332;51.954;20.118;2024-01-16T15:52:35;437.00;;;159.40;;
35847;SDS011;22332;51.954;20.118;2024-01-16T15:55:41;237.30;;;79.00;;
35847;SDS011;22332;51.954;20.118;2024-01-16T15:58:46;142.00;;;53.40;;
35847;SDS011;22332;51.954;20.118;2024-01-16T16:01:52;390.20;;;142.90;;
35847;SDS011;22332;51.954;20.118;2024-01-16T16:04:58;393.90;;;137.10;;
35847;SDS011;22332;51.954;20.118;2024-01-16T16:08:05;243.30;;;86.50;;
35847;SDS011;22332;51.954;20.118;2024-01-16T16:11:11;140.00;;;63.20;;
35847;SDS011;22332;51.954;20.118;2024-01-16T16:14:17;104.40;;;46.10;;
35847;SDS011;22332;51.954;20.118;2024-01-16T16:17:22;84.70;;;36.60;;
35847;SDS011;22332;51.954;20.118;2024-01-16T16:20:28;75.70;;;32.20;;
35847;SDS011;22332;51.954;20.118;2024-01-16T16:23:34;48.20;;;21.40;;
35847;SDS011;22332;51.954;20.118;2024-01-16T16:26:39;36.90;;;15.90;;
35847;SDS011;22332;51.954;20.118;2024-01-16T16:29:46;43.50;;;16.70;;
35847;SDS011;22332;51.954;20.118;2024-01-16T16:32:52;42.20;;;17.60;;
35847;SDS011;22332;51.954;20.118;2024-01-16T16:35:57;32.10;;;13.60;;
35847;SDS011;22332;51.954;20.118;2024-01-16T16:39:04;30.40;;;12.20;;
35847;SDS011;22332;51.954;20.118;2024-01-16T16:42:10;29.00;;;13.50;;
35847;SDS011;22332;51.954;20.118;2024-01-16T16:45:16;24.60;;;13.70;;
35847;SDS011;22332;51.954;20.118;2024-01-16T16:48:22;23.70;;;10.80;;
35847;SDS011;22332;51.954;20.118;2024-01-16T16:51:28;20.50;;;11.20;;
35847;SDS011;22332;51.954;20.118;2024-01-16T16:54:34;44.60;;;18.00;;
35847;SDS011;22332;51.954;20.118;2024-01-16T16:57:40;106.00;;;33.60;;
35847;SDS011;22332;51.954;20.118;2024-01-16T17:00:46;141.00;;;47.10;;
35847;SDS011;22332;51.954;20.118;2024-01-16T17:03:52;112.30;;;38.90;;
35847;SDS011;22332;51.954;20.118;2024-01-16T17:06:58;87.10;;;30.60;;
35847;SDS011;22332;51.954;20.118;2024-01-16T17:10:04;30.90;;;12.60;;
35847;SDS011;22332;51.954;20.118;2024-01-16T17:13:11;20.30;;;8.60;;
35847;SDS011;22332;51.954;20.118;2024-01-16T17:16:17;15.10;;;7.10;;
35847;SDS011;22332;51.954;20.118;2024-01-16T17:19:26;10.70;;;5.40;;
35847;SDS011;22332;51.954;20.118;2024-01-16T17:22:31;13.70;;;6.00;;
35847;SDS011;22332;51.954;20.118;2024-01-16T17:25:37;13.70;;;5.50;;
35847;SDS011;22332;51.954;20.118;2024-01-16T17:28:42;11.90;;;5.10;;
35847;SDS011;22332;51.954;20.118;2024-01-16T17:31:48;12.20;;;5.40;;
35847;SDS011;22332;51.954;20.118;2024-01-16T17:34:54;10.20;;;4.90;;
35847;SDS011;22332;51.954;20.118;2024-01-16T17:38:00;14.90;;;5.40;;
35847;SDS011;22332;51.954;20.118;2024-01-16T17:41:06;12.10;;;5.60;;
35847;SDS011;22332;51.954;20.118;2024-01-16T17:44:13;13.70;;;5.30;;
35847;SDS011;22332;51.954;20.118;2024-01-16T17:47:19;14.80;;;6.10;;
35847;SDS011;22332;51.954;20.118;2024-01-16T17:50:25;13.30;;;5.50;;
35847;SDS011;22332;51.954;20.118;2024-01-16T17:53:31;18.40;;;6.80;;
35847;SDS011;22332;51.954;20.118;2024-01-16T17:56:37;19.70;;;7.00;;
35847;SDS011;22332;51.954;20.118;2024-01-16T17:59:42;15.60;;;6.30;;
35847;SDS011;22332;51.954;20.118;2024-01-16T18:02:48;16.10;;;6.80;;
35847;SDS011;22332;51.954;20.118;2024-01-16T18:05:53;20.40;;;7.00;;
35847;SDS011;22332;51.954;20.118;2024-01-16T18:09:02;17.40;;;7.10;;
35847;SDS011;22332;51.954;20.118;2024-01-16T18:12:12;19.10;;;6.50;;